Time;durP1;ratioP1;P1;durP2;ratioP2;P2;SDS_P1;SDS_P2;PMS_P1;PMS_P2;Temp;Humidity;BMP_temperature;BMP_pressure;BME280_temperature;BME280_humidity;BME280_pressure;Samples;Min_cycle;Max_cycle;Signal;HPM_P1;HPM_P2
2022/05/22 00:00:12;;;;;;;16.45;5.88;;;;;;;;;;4721787;30;20056;-86
2022/05/22 00:02:38;;;;;;;13.43;6.03;;;;;;;;;;4718612;30;20093;-87
2022/05/22 00:05:05;;;;;;;12.73;5.35;;;;;;;;;;4719029;30;20586;-85
2022/05/22 00:07:31;;;;;;;12.68;6.53;;;;;;;;;;4718879;30;20130;-84
2022/05/22 00:09:57;;;;;;;11.88;6.20;;;;;;;;;;4719145;30;20057;-86
2022/05/22 00:12:23;;;;;;;12.13;5.60;;;;;;;;;;4719094;30;20530;-86
2022/05/22 00:14:49;;;;;;;14.25;6.95;;;;;;;;;;4734321;30;20099;-84
2022/05/22 00:17:15;;;;;;;8.95;6.10;;;;;;;;;;4735997;30;20052;-86
2022/05/22 00:19:43;;;;;;;11.38;5.85;;;;;;;;;;4736143;30;20052;-85
2022/05/22 00:22:09;;;;;;;14.55;7.80;;;;;;;;;;4736104;30;20051;-85
2022/05/22 00:24:35;;;;;;;14.18;7.03;;;;;;;;;;4735661;30;20056;-83
2022/05/22 00:27:03;;;;;;;12.75;6.43;;;;;;;;;;4722092;30;20053;-83
2022/05/22 00:29:30;;;;;;;13.43;6.97;;;;;;;;;;4736568;30;20122;-84
2022/05/22 00:31:57;;;;;;;15.50;7.30;;;;;;;;;;4706777;30;20117;-86
2022/05/22 00:34:23;;;;;;;13.07;6.00;;;;;;;;;;4736324;30;20049;-85
2022/05/22 00:36:49;;;;;;;15.05;5.78;;;;;;;;;;4736712;30;20056;-85
2022/05/22 00:39:16;;;;;;;9.45;6.00;;;;;;;;;;4736195;30;20109;-86
2022/05/22 00:41:46;;;;;;;11.30;6.10;;;;;;;;;;4750683;30;20060;-85
2022/05/22 00:44:13;;;;;;;9.65;5.40;;;;;;;;;;4736233;30;20106;-84
2022/05/22 00:46:40;;;;;;;6.68;3.45;;;;;;;;;;4732847;30;20063;-85
2022/05/22 00:49:12;;;;;;;4.60;2.35;;;;;;;;;;4736127;30;20078;-85
2022/05/22 00:51:51;;;;;;;10.57;5.50;;;;;;;;;;4736718;30;20048;-85
2022/05/22 00:54:20;;;;;;;8.10;5.22;;;;;;;;;;4733475;30;20084;-85
2022/05/22 00:56:48;;;;;;;10.35;6.03;;;;;;;;;;4721838;30;20110;-84
2022/05/22 00:59:19;;;;;;;8.55;5.90;;;;;;;;;;4722614;30;20513;-85
2022/05/22 01:01:46;;;;;;;10.90;6.00;;;;;;;;;;4704103;30;20436;-85
2022/05/22 01:04:16;;;;;;;9.15;5.72;;;;;;;;;;4704272;30;20120;-83
2022/05/22 01:06:43;;;;;;;14.38;7.18;;;;;;;;;;4718751;30;20121;-85
2022/05/22 01:09:09;;;;;;;9.63;6.20;;;;;;;;;;4719615;30;20060;-85
2022/05/22 01:11:36;;;;;;;13.10;7.03;;;;;;;;;;4719311;30;20052;-88
2022/05/22 01:14:04;;;;;;;8.40;6.03;;;;;;;;;;4719615;30;20060;-83
2022/05/22 01:16:32;;;;;;;12.93;5.88;;;;;;;;;;4734289;30;20077;-86
2022/05/22 01:18:58;;;;;;;14.73;6.85;;;;;;;;;;4719571;30;20137;-83
2022/05/22 01:21:30;;;;;;;8.40;5.90;;;;;;;;;;4705942;30;20053;-85
2022/05/22 01:23:56;;;;;;;11.32;6.28;;;;;;;;;;4706197;30;20060;-83
2022/05/22 01:26:23;;;;;;;9.43;5.88;;;;;;;;;;4720147;30;20135;-84
2022/05/22 01:28:50;;;;;;;8.25;5.43;;;;;;;;;;4746710;30;20102;-87
2022/05/22 01:31:16;;;;;;;9.07;5.85;;;;;;;;;;4723059;30;20623;-83
2022/05/22 01:33:44;;;;;;;10.60;5.47;;;;;;;;;;4737790;30;20559;-82
2022/05/22 01:36:10;;;;;;;9.35;6.25;;;;;;;;;;4740898;30;20086;-88
2022/05/22 01:38:37;;;;;;;10.02;6.15;;;;;;;;;;4751312;30;20056;-83
2022/05/22 01:41:04;;;;;;;9.93;5.15;;;;;;;;;;4740731;30;20059;-90
2022/05/22 01:43:30;;;;;;;10.60;4.45;;;;;;;;;;4726297;30;20505;-84
2022/05/22 01:45:56;;;;;;;5.45;3.60;;;;;;;;;;4740744;30;20636;-84
2022/05/22 01:48:23;;;;;;;7.50;4.30;;;;;;;;;;4722337;30;20060;-86
2022/05/22 01:50:50;;;;;;;8.02;4.75;;;;;;;;;;4722948;30;20079;-86
2022/05/22 01:53:17;;;;;;;13.43;5.57;;;;;;;;;;4737356;30;20064;-84
2022/05/22 01:55:43;;;;;;;11.32;6.07;;;;;;;;;;4723174;30;20053;-84
2022/05/22 01:58:09;;;;;;;14.73;7.25;;;;;;;;;;4733756;30;20071;-87
2022/05/22 02:00:36;;;;;;;11.77;5.93;;;;;;;;;;4740369;30;20114;-86
2022/05/22 02:03:03;;;;;;;12.27;6.95;;;;;;;;;;4739855;30;20077;-85
2022/05/22 02:05:29;;;;;;;10.68;5.50;;;;;;;;;;4739585;30;20059;-88
2022/05/22 02:10:40;;;;;;;10.65;6.07;;;;;;;;;;4739682;30;20087;-84
2022/05/22 02:13:07;;;;;;;11.30;5.40;;;;;;;;;;4725268;30;20064;-88
2022/05/22 02:15:33;;;;;;;14.95;6.10;;;;;;;;;;4750719;30;20056;-89
2022/05/22 02:17:59;;;;;;;14.60;5.97;;;;;;;;;;4739153;30;20048;-85
2022/05/22 02:20:26;;;;;;;9.30;5.10;;;;;;;;;;4739962;30;20056;-86
2022/05/22 02:22:53;;;;;;;6.43;4.90;;;;;;;;;;4754961;30;20052;-87
2022/05/22 02:25:24;;;;;;;10.77;5.15;;;;;;;;;;4739415;30;20056;-92
2022/05/22 02:27:50;;;;;;;6.90;4.90;;;;;;;;;;4756068;30;20136;-89
2022/05/22 02:30:19;;;;;;;10.05;4.90;;;;;;;;;;4755742;30;20514;-87
2022/05/22 02:32:46;;;;;;;10.13;5.05;;;;;;;;;;4740120;30;20135;-88
2022/05/22 02:35:13;;;;;;;6.05;4.22;;;;;;;;;;4736545;30;20080;-89
2022/05/22 02:37:43;;;;;;;5.65;4.35;;;;;;;;;;4724823;30;20082;-85
2022/05/22 02:40:09;;;;;;;11.13;4.57;;;;;;;;;;4725393;30;20082;-89
2022/05/22 02:42:40;;;;;;;7.70;4.60;;;;;;;;;;4739675;30;20392;-86
2022/05/22 02:45:06;;;;;;;9.38;4.93;;;;;;;;;;4725309;30;20090;-87
2022/05/22 02:47:34;;;;;;;7.88;5.05;;;;;;;;;;4739666;30;20411;-90
2022/05/22 02:50:00;;;;;;;6.53;4.43;;;;;;;;;;4739961;30;20056;-86
2022/05/22 02:52:26;;;;;;;11.35;5.20;;;;;;;;;;4739706;30;20055;-89
2022/05/22 02:54:52;;;;;;;6.60;4.65;;;;;;;;;;4738005;30;20063;-88
2022/05/22 02:57:22;;;;;;;17.30;5.00;;;;;;;;;;4739503;30;20063;-89
2022/05/22 02:59:49;;;;;;;9.43;4.47;;;;;;;;;;4739565;30;20529;-89
2022/05/22 03:02:16;;;;;;;10.05;4.78;;;;;;;;;;4739544;30;20398;-86
2022/05/22 03:04:42;;;;;;;5.63;4.15;;;;;;;;;;4739541;30;20143;-86
2022/05/22 03:07:09;;;;;;;5.85;4.75;;;;;;;;;;4735948;30;20111;-90
2022/05/22 03:09:37;;;;;;;6.13;4.47;;;;;;;;;;4739763;30;20058;-91
2022/05/22 03:12:09;;;;;;;8.88;5.45;;;;;;;;;;4739511;30;20052;-90
2022/05/22 03:14:35;;;;;;;7.28;5.40;;;;;;;;;;4738674;30;20052;-86
2022/05/22 03:17:02;;;;;;;7.13;4.60;;;;;;;;;;4722281;30;20067;-84
2022/05/22 03:19:28;;;;;;;16.13;5.95;;;;;;;;;;4722321;30;20136;-85
2022/05/22 03:21:55;;;;;;;12.23;5.60;;;;;;;;;;4736234;30;20061;-89
2022/05/22 03:24:21;;;;;;;10.80;5.93;;;;;;;;;;4721933;30;20059;-88
2022/05/22 03:26:47;;;;;;;10.63;5.40;;;;;;;;;;4731403;30;20102;-92
2022/05/22 03:29:14;;;;;;;14.43;5.70;;;;;;;;;;4722432;30;20518;-88
2022/05/22 03:31:40;;;;;;;10.15;5.60;;;;;;;;;;4736477;30;20064;-89
2022/05/22 03:34:06;;;;;;;10.90;4.82;;;;;;;;;;4736059;30;20125;-87
2022/05/22 03:36:32;;;;;;;9.20;4.88;;;;;;;;;;4721412;30;20491;-86
2022/05/22 03:38:58;;;;;;;9.55;5.40;;;;;;;;;;4720808;30;20092;-91
2022/05/22 03:41:24;;;;;;;9.48;5.00;;;;;;;;;;4735986;30;20056;-90
2022/05/22 03:43:53;;;;;;;6.38;5.13;;;;;;;;;;4735468;30;20052;-88
2022/05/22 03:46:20;;;;;;;9.25;5.72;;;;;;;;;;4720326;30;20127;-89
2022/05/22 03:48:46;;;;;;;10.43;6.05;;;;;;;;;;4736057;30;20136;-86
2022/05/22 03:51:12;;;;;;;13.07;6.38;;;;;;;;;;4735359;30;20041;-84
2022/05/22 03:53:38;;;;;;;12.25;6.55;;;;;;;;;;4735649;30;20152;-86
2022/05/22 03:56:09;;;;;;;12.43;6.35;;;;;;;;;;4735315;30;20045;-88
2022/05/22 03:58:35;;;;;;;13.38;6.53;;;;;;;;;;4734125;30;20557;-87
2022/05/22 04:01:07;;;;;;;11.77;6.45;;;;;;;;;;4734789;30;20101;-86
2022/05/22 04:03:34;;;;;;;10.00;5.80;;;;;;;;;;4734599;30;20530;-86
2022/05/22 04:06:01;;;;;;;12.15;5.63;;;;;;;;;;4734674;30;20506;-89
2022/05/22 04:08:28;;;;;;;12.95;6.30;;;;;;;;;;4725967;30;20057;-86
2022/05/22 04:10:55;;;;;;;10.52;5.85;;;;;;;;;;4733845;30;20052;-85
2022/05/22 04:13:21;;;;;;;13.32;6.18;;;;;;;;;;4748679;30;20055;-87
2022/05/22 04:15:47;;;;;;;12.02;5.95;;;;;;;;;;4734747;30;20076;-84
2022/05/22 04:18:14;;;;;;;12.73;6.43;;;;;;;;;;4729681;30;20071;-85
2022/05/22 04:20:40;;;;;;;11.98;5.80;;;;;;;;;;4702935;30;20057;-84
2022/05/22 04:26:01;;;;;;;20.00;6.22;;;;;;;;;;4716898;30;20069;-86
2022/05/22 04:28:29;;;;;;;12.25;5.95;;;;;;;;;;4717902;30;20098;-89
2022/05/22 04:30:56;;;;;;;9.00;5.43;;;;;;;;;;4688358;30;20392;-85
2022/05/22 04:33:22;;;;;;;10.98;6.03;;;;;;;;;;4717294;30;20049;-91
2022/05/22 04:35:48;;;;;;;13.60;6.15;;;;;;;;;;4732938;30;20068;-84
2022/05/22 04:38:15;;;;;;;8.90;5.68;;;;;;;;;;4719533;30;20061;-85
2022/05/22 04:40:41;;;;;;;12.32;6.03;;;;;;;;;;4734928;30;20110;-86
2022/05/22 04:43:09;;;;;;;15.38;5.70;;;;;;;;;;4720615;30;20061;-88
2022/05/22 04:45:39;;;;;;;11.63;5.85;;;;;;;;;;4733776;30;20128;-87
2022/05/22 04:48:05;;;;;;;14.65;7.15;;;;;;;;;;4734795;30;20095;-88
2022/05/22 04:50:32;;;;;;;16.23;5.82;;;;;;;;;;4735321;30;20139;-87
2022/05/22 04:52:58;;;;;;;21.08;6.85;;;;;;;;;;4735147;30;20057;-87
2022/05/22 04:55:24;;;;;;;11.35;6.45;;;;;;;;;;4731219;30;20087;-87
2022/05/22 04:57:50;;;;;;;14.43;6.88;;;;;;;;;;4720637;30;20542;-89
2022/05/22 05:00:17;;;;;;;9.82;6.32;;;;;;;;;;4736064;30;20056;-87
2022/05/22 05:02:43;;;;;;;18.67;6.65;;;;;;;;;;4738237;30;20411;-86
2022/05/22 05:05:10;;;;;;;21.77;7.43;;;;;;;;;;4736521;30;20503;-86
2022/05/22 05:07:40;;;;;;;15.65;7.60;;;;;;;;;;4722331;30;20518;-85
2022/05/22 05:10:07;;;;;;;14.98;7.18;;;;;;;;;;4737789;30;20561;-85
2022/05/22 05:12:36;;;;;;;23.33;7.70;;;;;;;;;;4738016;30;20136;-85
2022/05/22 05:15:03;;;;;;;15.82;6.97;;;;;;;;;;4735827;30;20092;-85
2022/05/22 05:17:29;;;;;;;18.15;7.47;;;;;;;;;;4735113;30;20044;-86
2022/05/22 05:19:55;;;;;;;21.05;7.65;;;;;;;;;;4722216;30;20056;-85
2022/05/22 05:22:21;;;;;;;20.70;8.05;;;;;;;;;;4736204;30;20052;-85
2022/05/22 05:24:47;;;;;;;12.57;8.65;;;;;;;;;;4707646;30;20057;-86
2022/05/22 05:27:13;;;;;;;13.48;8.07;;;;;;;;;;4735305;30;20070;-84
2022/05/22 05:29:39;;;;;;;16.98;7.85;;;;;;;;;;4750474;30;20141;-87
2022/05/22 05:32:06;;;;;;;14.38;7.82;;;;;;;;;;4721680;30;20129;-85
2022/05/22 05:34:32;;;;;;;15.55;7.13;;;;;;;;;;4737103;30;20057;-85
2022/05/22 05:37:00;;;;;;;15.30;7.65;;;;;;;;;;4736576;30;20068;-85
2022/05/22 05:39:27;;;;;;;18.70;7.75;;;;;;;;;;4724130;30;20061;-86
2022/05/22 05:41:57;;;;;;;20.10;8.30;;;;;;;;;;4718652;30;20515;-84
2022/05/22 05:44:24;;;;;;;17.00;7.88;;;;;;;;;;4718734;30;20049;-85
2022/05/22 05:46:50;;;;;;;21.58;8.52;;;;;;;;;;4718703;30;20063;-85
2022/05/22 05:49:16;;;;;;;19.42;8.15;;;;;;;;;;4727037;30;20533;-84
2022/05/22 05:51:45;;;;;;;17.75;8.63;;;;;;;;;;4721327;30;20045;-85
2022/05/22 05:54:11;;;;;;;16.95;8.73;;;;;;;;;;4721366;30;20052;-86
2022/05/22 05:56:41;;;;;;;19.65;8.57;;;;;;;;;;4720736;30;20052;-85
2022/05/22 05:59:08;;;;;;;16.40;8.48;;;;;;;;;;4720493;30;20183;-85
2022/05/22 06:01:35;;;;;;;18.60;7.60;;;;;;;;;;4718578;30;20049;-86
2022/05/22 06:04:01;;;;;;;14.27;7.60;;;;;;;;;;4718347;30;20056;-85
2022/05/22 06:06:28;;;;;;;15.75;7.30;;;;;;;;;;4718385;30;20060;-88
2022/05/22 06:08:55;;;;;;;20.30;7.97;;;;;;;;;;4718184;30;20064;-84
2022/05/22 06:11:22;;;;;;;18.42;8.43;;;;;;;;;;4718736;30;20044;-86
2022/05/22 06:13:48;;;;;;;16.50;7.90;;;;;;;;;;4735679;30;20064;-86
2022/05/22 06:16:15;;;;;;;18.70;7.93;;;;;;;;;;4735509;30;20065;-86
2022/05/22 06:18:42;;;;;;;30.63;8.27;;;;;;;;;;4721090;30;20110;-85
2022/05/22 06:21:10;;;;;;;13.07;7.45;;;;;;;;;;4734990;30;20091;-84
2022/05/22 06:23:38;;;;;;;20.38;7.45;;;;;;;;;;4736180;30;20096;-84
2022/05/22 06:26:05;;;;;;;17.38;7.95;;;;;;;;;;4736318;30;20406;-85
2022/05/22 06:28:31;;;;;;;25.75;7.82;;;;;;;;;;4735766;30;20056;-85
2022/05/22 06:30:57;;;;;;;21.23;7.70;;;;;;;;;;4735029;30;20044;-89
2022/05/22 06:33:24;;;;;;;15.15;7.80;;;;;;;;;;4717263;30;20114;-87
2022/05/22 06:35:50;;;;;;;18.08;7.30;;;;;;;;;;4703612;30;20053;-87
2022/05/22 06:41:07;;;;;;;17.08;6.90;;;;;;;;;;4717914;30;20061;-86
2022/05/22 06:43:34;;;;;;;16.80;6.93;;;;;;;;;;4730551;30;20053;-84
2022/05/22 06:46:00;;;;;;;12.73;7.07;;;;;;;;;;4719537;30;20143;-84
2022/05/22 06:48:26;;;;;;;11.73;6.75;;;;;;;;;;4719611;30;20041;-85
2022/05/22 06:50:52;;;;;;;19.00;7.50;;;;;;;;;;4719182;30;20115;-85
2022/05/22 06:53:18;;;;;;;13.48;6.55;;;;;;;;;;4733132;30;20057;-85
2022/05/22 06:55:44;;;;;;;19.77;6.18;;;;;;;;;;4733891;30;20071;-85
2022/05/22 06:58:10;;;;;;;13.70;6.15;;;;;;;;;;4733450;30;20057;-84
2022/05/22 07:00:37;;;;;;;10.95;5.65;;;;;;;;;;4733632;30;20045;-84
2022/05/22 07:03:03;;;;;;;15.00;5.55;;;;;;;;;;4732781;30;20518;-84
2022/05/22 07:05:31;;;;;;;15.38;5.72;;;;;;;;;;4730746;30;20084;-84
2022/05/22 07:08:00;;;;;;;17.35;7.43;;;;;;;;;;4733536;30;20052;-86
2022/05/22 07:13:14;;;;;;;14.85;6.05;;;;;;;;;;4732770;30;20056;-84
2022/05/22 07:15:40;;;;;;;15.40;6.45;;;;;;;;;;4733079;30;20085;-85
2022/05/22 07:18:06;;;;;;;12.73;5.75;;;;;;;;;;4733213;30;20060;-85
2022/05/22 07:20:32;;;;;;;14.55;5.32;;;;;;;;;;4733158;30;20114;-84
2022/05/22 07:22:58;;;;;;;12.02;5.15;;;;;;;;;;4732699;30;20159;-85
2022/05/22 07:25:26;;;;;;;11.07;4.20;;;;;;;;;;4718544;30;20059;-85
2022/05/22 07:27:52;;;;;;;10.15;4.75;;;;;;;;;;4733402;30;20082;-85
2022/05/22 07:30:18;;;;;;;15.70;5.68;;;;;;;;;;4732843;30;20061;-85
2022/05/22 07:32:44;;;;;;;14.43;5.00;;;;;;;;;;4728511;30;20569;-85
2022/05/22 07:35:10;;;;;;;12.13;3.45;;;;;;;;;;4715750;30;20067;-84
2022/05/22 07:37:36;;;;;;;8.60;3.13;;;;;;;;;;4715777;30;20093;-85
2022/05/22 07:40:03;;;;;;;4.07;2.50;;;;;;;;;;4715736;30;20053;-88
2022/05/22 07:42:29;;;;;;;6.22;2.78;;;;;;;;;;4715863;30;20057;-85
2022/05/22 07:44:55;;;;;;;11.52;3.40;;;;;;;;;;4731719;30;20044;-84
2022/05/22 07:47:21;;;;;;;5.78;2.20;;;;;;;;;;4718041;30;20049;-84
2022/05/22 07:52:32;;;;;;;10.95;3.63;;;;;;;;;;4732693;30;20114;-84
2022/05/22 07:55:00;;;;;;;10.07;3.35;;;;;;;;;;4732685;30;20056;-84
2022/05/22 07:57:26;;;;;;;10.25;3.05;;;;;;;;;;4718105;30;20091;-84
2022/05/22 07:59:52;;;;;;;6.03;2.78;;;;;;;;;;4717795;30;20064;-84
2022/05/22 08:02:18;;;;;;;8.20;2.45;;;;;;;;;;4717725;30;20052;-84
2022/05/22 08:04:44;;;;;;;7.13;2.40;;;;;;;;;;4717483;30;20052;-84
2022/05/22 08:07:12;;;;;;;8.65;3.00;;;;;;;;;;4732704;30;20410;-85
2022/05/22 08:09:38;;;;;;;7.18;3.80;;;;;;;;;;4732774;30;20057;-84
2022/05/22 08:12:04;;;;;;;7.65;2.60;;;;;;;;;;4717748;30;20080;-84
2022/05/22 08:14:30;;;;;;;5.88;3.00;;;;;;;;;;4711657;30;20537;-85
2022/05/22 08:16:58;;;;;;;7.82;2.75;;;;;;;;;;4726456;30;20495;-84
2022/05/22 08:19:29;;;;;;;5.13;2.70;;;;;;;;;;4732297;30;20113;-84
2022/05/22 08:21:55;;;;;;;4.72;2.53;;;;;;;;;;4727255;30;20049;-84
2022/05/22 08:24:21;;;;;;;5.38;2.33;;;;;;;;;;4725679;30;20040;-84
2022/05/22 08:26:48;;;;;;;11.00;2.58;;;;;;;;;;4730816;30;20057;-85
2022/05/22 08:29:14;;;;;;;9.77;2.42;;;;;;;;;;4732366;30;20044;-85
2022/05/22 08:31:40;;;;;;;7.82;2.20;;;;;;;;;;4731930;30;20502;-84
2022/05/22 08:34:07;;;;;;;6.93;1.92;;;;;;;;;;4731092;30;20065;-84
2022/05/22 08:36:33;;;;;;;7.88;2.20;;;;;;;;;;4714907;30;20507;-86
2022/05/22 08:38:59;;;;;;;6.90;2.10;;;;;;;;;;4732307;30;20059;-86
2022/05/22 08:41:33;;;;;;;7.78;3.00;;;16.10;99.90;;;;;;4732148;30;20048;-85
2022/05/22 08:44:15;;;;;;;13.15;3.10;;;16.20;99.90;;;;;;4717667;30;20052;-85
2022/05/22 08:47:28;;;;;;;8.30;2.47;;;16.50;99.90;;;;;;4716714;30;20465;-84
2022/05/22 08:49:57;;;;;;;4.72;2.67;;;;;;;;;;4732349;30;20069;-85
2022/05/22 08:52:23;;;;;;;6.38;2.97;;;;;;;;;;4733477;30;20474;-88
2022/05/22 08:55:00;;;;;;;6.47;2.97;;;16.50;99.90;;;;;;4733075;30;20076;-89
2022/05/22 09:00:37;;;;;;;7.90;3.72;;;16.50;99.90;;;;;;4730558;30;20487;-90
2022/05/22 09:03:25;;;;;;;9.82;3.70;;;16.50;99.90;;;;;;4733272;30;20110;-89
2022/05/22 09:05:59;;;;;;;7.03;2.90;;;16.80;99.90;;;;;;4718213;30;20097;-89
2022/05/22 09:08:47;;;;;;;8.55;2.72;;;16.80;99.90;;;;;;4732213;30;20387;-88
2022/05/22 09:11:53;;;;;;;7.50;3.25;;;16.80;99.90;;;;;;4711724;30;20049;-89
2022/05/22 09:14:29;;;;;;;8.55;3.10;;;16.80;99.90;;;;;;4683531;30;20065;-89
2022/05/22 09:17:01;;;;;;;13.13;4.00;;;16.90;99.90;;;;;;4695339;30;20549;-89
2022/05/22 09:19:42;;;;;;;13.10;3.10;;;16.90;99.90;;;;;;4700528;30;20144;-87
2022/05/22 09:22:17;;;;;;;6.38;2.67;;;;;;;;;;4700224;30;20119;-89
2022/05/22 09:25:08;;;;;;;7.82;2.58;;;16.90;99.90;;;;;;4686347;30;20065;-88
2022/05/22 09:27:46;;;;;;;8.32;2.75;;;17.10;99.90;;;;;;4700493;30;20061;-87
2022/05/22 09:30:12;;;;;;;6.60;3.05;;;;;;;;;;4666661;30;20215;-89
2022/05/22 09:32:38;;;;;;;8.13;2.92;;;;;;;;;;4665987;30;20065;-87
2022/05/22 09:35:21;;;;;;;6.90;3.35;;;;;;;;;;4670576;30;20128;-88
2022/05/22 09:38:23;;;;;;;9.15;2.92;;;17.40;99.90;;;;;;4682771;30;20073;-87
2022/05/22 09:41:03;;;;;;;8.45;2.92;;;17.70;99.90;;;;;;4683929;30;20140;-87
2022/05/22 09:43:58;;;;;;;5.43;2.75;;;17.80;99.90;;;;;;4669613;30;20072;-87
2022/05/22 09:46:55;;;;;;;8.50;2.58;;;17.70;99.90;;;;;;4682669;30;20057;-88
2022/05/22 09:49:22;;;;;;;7.43;2.65;;;;;;;;;;4665263;30;20147;-87
2022/05/22 09:52:21;;;;;;;5.40;3.08;;;18.00;99.90;;;;;;4717189;30;20061;-88
2022/05/22 09:54:58;;;;;;;9.02;3.50;;;17.70;99.90;;;;;;4703889;30;20045;-88
2022/05/22 09:57:25;;;;;;;3.35;2.13;;;;;;;;;;4723933;30;20399;-88
2022/05/22 10:00:06;;;;;;;4.22;2.40;;;17.90;99.90;;;;;;4735864;30;20131;-88
2022/05/22 10:02:53;;;;;;;8.13;2.92;;;17.90;99.90;;;;;;4736966;30;20052;-84
2022/05/22 10:05:21;;;;;;;6.18;2.40;;;;;;;;;;4720786;30;20068;-88
2022/05/22 10:07:47;;;;;;;6.22;2.20;;;;;;;;;;4733100;30;20060;-89
2022/05/22 10:10:13;;;;;;;6.32;2.90;;;;;;;;;;4718718;30;20448;-87
2022/05/22 10:12:50;;;;;;;6.40;2.55;;;18.40;99.90;;;;;;4718576;30;20049;-89
2022/05/22 10:15:44;;;;;;;8.27;3.60;;;19.10;99.90;;;;;;4704469;30;20093;-88
2022/05/22 10:18:10;;;;;;;9.38;3.03;;;;;;;;;;4718735;30;20427;-88
2022/05/22 10:21:02;;;;;;;5.38;2.20;;;18.50;99.90;;;;;;4721351;30;20060;-88
2022/05/22 10:23:55;;;;;;;8.98;2.55;;;18.80;99.90;;;;;;4721626;30;20056;-87
2022/05/22 10:26:38;;;;;;;6.65;2.08;;;18.80;99.90;;;;;;4735090;30;20087;-88
2022/05/22 10:29:30;;;;;;;6.97;2.63;;;18.80;99.90;;;;;;4731629;30;20496;-88
2022/05/22 10:32:09;;;;;;;5.78;2.67;;;19.00;99.90;;;;;;4703210;30;20061;-88
2022/05/22 10:35:07;;;;;;;7.05;2.65;;;19.20;99.90;;;;;;4702780;30;20072;-87
2022/05/22 10:37:57;;;;;;;4.32;2.42;;;19.10;99.90;;;;;;4682588;30;20069;-87
2022/05/22 10:40:25;;;;;;;4.13;2.30;;;19.20;99.90;;;;;;4654170;30;20104;-88
2022/05/22 10:42:54;;;;;;;4.50;1.95;;;19.20;99.90;;;;;;4667257;30;20057;-86
2022/05/22 10:45:34;;;;;;;8.43;2.15;;;19.50;99.90;;;;;;4686660;30;20534;-87
2022/05/22 10:48:19;;;;;;;4.22;2.13;;;19.50;99.90;;;;;;4673076;30;20064;-86
2022/05/22 10:50:54;;;;;;;6.35;2.00;;;19.60;99.90;;;;;;4672722;30;20069;-84
2022/05/22 10:53:44;;;;;;;7.10;2.42;;;19.70;99.90;;;;;;4677604;30;20055;-87
2022/05/22 10:56:21;;;;;;;6.20;2.45;;;19.80;99.90;;;;;;4635422;30;20069;-86
2022/05/22 10:58:58;;;;;;;7.35;3.42;;;19.90;99.90;;;;;;4661111;30;20089;-86
2022/05/22 11:01:29;;;;;;;8.93;2.65;;;19.80;99.90;;;;;;4653169;30;20062;-87
2022/05/22 11:04:13;;;;;;;4.65;1.83;;;19.90;99.90;;;;;;4655146;30;20109;-88
2022/05/22 11:06:58;;;;;;;3.60;2.33;;;19.70;99.90;;;;;;4655626;30;20066;-83
2022/05/22 11:09:31;;;;;;;8.90;2.85;;;20.10;99.90;;;;;;4706393;30;20065;-85
2022/05/22 11:12:19;;;;;;;5.38;2.58;;;20.00;99.90;;;;;;4700419;30;20136;-83
2022/05/22 11:14:45;;;;;;;6.45;2.92;;;;;;;;;;4715221;30;20097;-85
2022/05/22 11:17:17;;;;;;;6.70;2.05;;;20.40;99.90;;;;;;4725953;30;20048;-82
2022/05/22 11:19:45;;;;;;;4.72;2.05;;;20.30;99.90;;;;;;4739218;30;20061;-82
2022/05/22 11:22:36;;;;;;;5.40;2.20;;;20.40;99.90;;;;;;4717263;30;20424;-83
2022/05/22 11:25:03;;;;;;;8.18;2.90;;;;;;;;;;4726939;30;20118;-93
2022/05/22 11:27:56;;;;;;;9.40;2.25;;;20.30;99.90;;;;;;4728666;30;20057;-85
2022/05/22 11:30:47;;;;;;;7.45;2.03;;;20.60;99.90;;;;;;4697805;30;20410;-87
2022/05/22 11:33:33;;;;;;;5.30;1.92;;;20.60;99.90;;;;;;4757157;30;20052;-84
2022/05/22 11:36:11;;;;;;;7.43;1.95;;;20.80;99.90;;;;;;4743952;30;20577;-82
2022/05/22 11:38:54;;;;;;;5.25;1.73;;;20.70;99.90;;;;;;4743944;30;20056;-84
2022/05/22 11:41:38;;;;;;;6.15;1.95;;;21.00;99.90;;;;;;4760042;30;20056;-85
2022/05/22 11:44:41;;;;;;;9.18;2.00;;;21.20;99.90;;;;;;4726091;30;20514;-86
2022/05/22 11:47:18;;;;;;;9.73;1.83;;;20.90;99.90;;;;;;4739769;30;20087;-84
2022/05/22 11:49:56;;;;;;;4.15;1.70;;;21.30;99.90;;;;;;4740194;30;20053;-86
2022/05/22 11:52:56;;;;;;;13.57;1.83;;;21.50;99.90;;;;;;4742067;30;20051;-87
2022/05/22 11:55:46;;;;;;;2.70;1.35;;;21.30;99.90;;;;;;4742113;30;20167;-83
2022/05/22 11:58:42;;;;;;;4.70;2.03;;;21.40;99.90;;;;;;4742666;30;20044;-88
2022/05/22 12:01:18;;;;;;;9.90;2.15;;;21.20;99.90;;;;;;4724251;30;20064;-88
2022/05/22 12:04:02;;;;;;;3.10;1.67;;;21.30;99.90;;;;;;4728802;30;20055;-85
2022/05/22 12:06:31;;;;;;;5.10;1.52;;;21.10;99.90;;;;;;4758209;30;20063;-83
2022/05/22 12:09:32;;;;;;;5.00;1.90;;;21.00;99.90;;;;;;4755240;30;20054;-86
2022/05/22 12:12:14;;;;;;;7.97;2.10;;;21.20;99.90;;;;;;4742633;30;20052;-83
2022/05/22 12:15:04;;;;;;;2.75;1.85;;;21.10;99.90;;;;;;4728433;30;20056;-89
2022/05/22 12:17:49;;;;;;;2.53;1.83;;;21.00;99.90;;;;;;4743631;30;20126;-89
2022/05/22 12:20:15;;;;;;;5.53;2.13;;;21.00;99.90;;;;;;4719708;30;20048;-87
2022/05/22 12:23:08;;;;;;;4.22;1.80;;;21.30;99.90;;;;;;4743229;30;20176;-87
2022/05/22 12:25:41;;;;;;;6.10;1.90;;;21.20;99.90;;;;;;4725631;30;20056;-86
2022/05/22 12:28:47;;;;;;;4.72;2.08;;;21.10;99.90;;;;;;4735560;30;20051;-85
2022/05/22 12:31:30;;;;;;;3.90;1.88;;;21.10;99.90;;;;;;4720619;30;20048;-86
2022/05/22 12:34:02;;;;;;;4.43;2.13;;;21.00;99.90;;;;;;4720469;30;20120;-86
2022/05/22 12:36:30;;;;;;;2.00;1.60;;;21.10;99.90;;;;;;4735444;30;20048;-86
2022/05/22 12:39:06;;;;;;;5.50;1.95;;;21.00;99.90;;;;;;4735207;30;20056;-88
2022/05/22 12:41:58;;;;;;;4.60;1.75;;;21.10;99.90;;;;;;4720617;30;20055;-85
2022/05/22 12:44:28;;;;;;;4.13;2.35;;;;;;;;;;4735117;30;20056;-85
2022/05/22 12:46:56;;;;;;;5.65;2.10;;;21.00;99.90;;;;;;4717629;30;20083;-85
2022/05/22 12:49:29;;;;;;;3.95;1.80;;;21.00;99.90;;;;;;4712383;30;20406;-89
2022/05/22 12:51:58;;;;;;;12.80;2.83;;;20.90;99.90;;;;;;4716482;30;20048;-86
2022/05/22 12:54:26;;;;;;;10.43;2.33;;;20.80;99.90;;;;;;4705347;30;20058;-89
2022/05/22 12:56:52;;;;;;;3.72;2.00;;;;;;;;;;4710350;30;20200;-88
2022/05/22 12:59:28;;;;;;;7.72;2.13;;;21.00;99.90;;;;;;4722334;30;20060;-86
2022/05/22 13:01:57;;;;;;;5.25;2.40;;;21.00;99.90;;;;;;4715716;30;20139;-89
2022/05/22 13:04:50;;;;;;;4.03;1.88;;;21.00;99.90;;;;;;4719806;30;20084;-84
2022/05/22 13:07:21;;;;;;;8.18;1.80;;;20.90;99.90;;;;;;4735023;30;20075;-83
2022/05/22 13:09:51;;;;;;;4.32;2.20;;;21.00;99.90;;;;;;4751015;30;20056;-91
2022/05/22 13:12:16;;;;;;;2.83;1.38;;;20.80;99.90;;;;;;4719332;30;20052;-91
2022/05/22 13:14:54;;;;;;;6.47;2.00;;;20.90;99.90;;;;;;4734081;30;20051;-87
2022/05/22 13:18:11;;;;;;;3.47;1.88;;;20.80;99.90;;;;;;4719248;30;20509;-90
2022/05/22 13:20:37;;;;;;;6.07;2.00;;;;;;;;;;4698309;30;20466;-87
2022/05/22 13:23:22;;;;;;;3.80;1.20;;;21.00;99.90;;;;;;4683401;30;20598;-87
2022/05/22 13:25:57;;;;;;;4.32;1.70;;;20.90;99.90;;;;;;4701222;30;20053;-91
2022/05/22 13:28:30;;;;;;;4.13;1.73;;;21.00;99.90;;;;;;4718753;30;20045;-87
2022/05/22 13:31:03;;;;;;;;;;;20.90;99.90;;;;;;4703250;30;20527;-87
2022/05/22 13:33:29;;;;;;;4.50;1.80;;;20.90;99.90;;;;;;4715837;30;19939;-86
2022/05/22 13:35:59;;;;;;;6.25;1.80;;;21.10;99.90;;;;;;4715446;30;20207;-86
2022/05/22 13:38:25;;;;;;;7.07;1.42;;;21.30;99.90;;;;;;4702443;30;20053;-84
2022/05/22 13:41:01;;;;;;;5.22;1.90;;;21.20;99.90;;;;;;4701758;30;20055;-85
2022/05/22 13:43:39;;;;;;;3.80;1.75;;;21.10;99.90;;;;;;4714270;30;20061;-82
2022/05/22 13:46:25;;;;;;;6.53;1.63;;;21.40;99.90;;;;;;4716363;30;20064;-83
2022/05/22 13:49:03;;;;;;;9.15;2.03;;;21.50;99.90;;;;;;4702090;30;20061;-89
2022/05/22 13:54:35;;;;;;;2.88;1.77;;;21.80;99.90;;;;;;4697706;30;20049;-85
2022/05/22 13:57:13;;;;;;;6.50;1.85;;;21.60;99.90;;;;;;4735798;30;20095;-87
2022/05/22 13:59:56;;;;;;;5.57;2.38;;;21.60;99.90;;;;;;4723459;30;20044;-88
2022/05/22 14:02:43;;;;;;;4.05;1.48;;;21.30;99.90;;;;;;4736931;30;20495;-87
2022/05/22 14:05:10;;;;;;;4.38;2.03;;;21.70;99.90;;;;;;4732491;30;20060;-88
2022/05/22 14:07:51;;;;;;;2.40;1.45;;;21.60;99.90;;;;;;4705791;30;20056;-87
2022/05/22 14:10:31;;;;;;;3.50;1.20;;;21.50;99.90;;;;;;4716629;30;20059;-92
2022/05/22 14:12:57;;;;;;;3.78;1.95;;;21.10;99.90;;;;;;4726593;30;20062;-89
2022/05/22 14:15:26;;;;;;;4.00;1.70;;;21.60;99.90;;;;;;4744861;30;20048;-88
2022/05/22 14:17:53;;;;;;;7.53;1.70;;;21.30;99.90;;;;;;4747014;30;20056;-84
2022/05/22 14:20:26;;;;;;;3.63;1.20;;;21.60;99.90;;;;;;4747779;30;20131;-91
2022/05/22 14:23:07;;;;;;;2.38;1.60;;;21.30;99.90;;;;;;4732943;30;20052;-86
2022/05/22 14:25:35;;;;;;;5.65;2.10;;;;;;;;;;4755067;30;20049;-89
2022/05/22 14:28:04;;;;;;;2.95;1.55;;;21.60;99.90;;;;;;4742761;30;20049;-85
2022/05/22 14:30:34;;;;;;;4.75;1.60;;;21.10;99.90;;;;;;4729481;30;20061;-84
2022/05/22 14:33:09;;;;;;;4.32;1.80;;;21.20;99.90;;;;;;4748330;30;20056;-86
2022/05/22 14:35:48;;;;;;;7.07;1.27;;;21.50;99.90;;;;;;4728899;30;20094;-88
2022/05/22 14:38:31;;;;;;;2.92;1.40;;;21.40;99.90;;;;;;4719206;30;20422;-83